MMCL/CUL METAR and TAF weather

Enter ICAO airport designator
Station Type Date Time Source
MMCL METAR 2019/02/22 21:45 UTC NOAA

MMCL 222145Z 26009KT 10SM SCT250 25/11 A2998 RMK 8/004


Station Type Date Time Source
MMCL Decoded METAR 2019/02/22 21:45 UTC NOAA

Culiacan, Sin., Mexico (MMCL) 24-49N 107-24W
Feb 22, 2019 - 04:45 PM EST / 2019.02.22 2145 UTC
Wind: from the W (260 degrees) at 10 MPH (9 KT):0
Visibility: 10 mile(s):0
Sky conditions: partly cloudy
Temperature: 77 F (25 C)
Dew Point: 51 F (11 C)
Relative Humidity: 41%
Pressure (altimeter): 29.98 in. Hg (1015 hPa)
ob: MMCL 222145Z 26009KT 10SM SCT250 25/11 A2998 RMK 8/004
cycle: 22

Station Type Date Time Source
MMCL TAF 2019/02/22 18:46 UTC NOAA

TAF MMCL 221643Z 2218/2318 23006KT P6SM SCT030 SCT250
BECMG 2220/2221 23015KT SCT030 BKN250
FM230200 32005KT P6SM SCT030 BKN250
BECMG 2305/2306 00000KT
FM231200 36005KT P6SM BKN250


Example: see airport list